createdAt,value
2022-12-08T00:01:28.719Z,99393.25
2022-12-08T00:03:56.442Z,99388.88
2022-12-08T00:06:46.728Z,99377.25
2022-12-08T00:09:22.129Z,99371.22
2022-12-08T00:12:10.795Z,99371.88
2022-12-08T00:14:39.828Z,99369.56
2022-12-08T00:17:08.141Z,99362.63
2022-12-08T00:19:34.922Z,99375.38
2022-12-08T00:22:01.943Z,99373.72
2022-12-08T00:24:35.154Z,99369.63
2022-12-08T00:27:02.988Z,99368.63
2022-12-08T00:29:29.667Z,99361.75
2022-12-08T00:31:56.455Z,99366.47
2022-12-08T00:34:23.233Z,99362.97
2022-12-08T00:36:49.844Z,99356.50
2022-12-08T00:39:17.721Z,99353.06
2022-12-08T00:42:03.135Z,99343.94
2022-12-08T00:44:29.876Z,99341.22
2022-12-08T00:46:56.823Z,99337.97
2022-12-08T00:49:24.070Z,99342.22
2022-12-08T00:51:50.894Z,99333.81
2022-12-08T00:54:18.290Z,99346.44
2022-12-08T00:56:45.025Z,99346.88
2022-12-08T00:59:12.136Z,99348.06
2022-12-08T01:01:38.746Z,99343.00
2022-12-08T01:04:12.205Z,99346.97
2022-12-08T01:06:39.437Z,99342.09
2022-12-08T01:09:07.656Z,99345.00
2022-12-08T01:11:35.113Z,99345.66
2022-12-08T01:14:01.828Z,99345.38
2022-12-08T01:16:31.111Z,99346.13
2022-12-08T01:18:59.153Z,99342.03
2022-12-08T01:21:26.056Z,99343.22
2022-12-08T01:23:52.650Z,99335.03
2022-12-08T01:26:22.203Z,99326.78
2022-12-08T01:28:48.840Z,99334.25
2022-12-08T01:31:18.239Z,99325.75
2022-12-08T01:33:45.247Z,99330.53
2022-12-08T01:36:32.844Z,99333.25
2022-12-08T01:39:01.333Z,99324.22
2022-12-08T01:41:31.285Z,99318.56
2022-12-08T01:44:24.683Z,99323.25
2022-12-08T01:46:53.582Z,99320.56
2022-12-08T01:49:33.108Z,99311.91
2022-12-08T01:52:23.406Z,99310.13
2022-12-08T01:54:56.243Z,99309.72
2022-12-08T01:57:31.005Z,99320.75
2022-12-08T02:00:09.901Z,99315.38
2022-12-08T02:03:00.384Z,99323.91
2022-12-08T02:05:33.560Z,99317.13
2022-12-08T02:08:04.470Z,99310.81
2022-12-08T02:10:34.711Z,99310.69
2022-12-08T02:13:02.923Z,99315.53
2022-12-08T02:15:38.785Z,99305.47
2022-12-08T02:18:17.576Z,99311.94
2022-12-08T02:21:02.292Z,99305.63
2022-12-08T02:23:50.573Z,99311.00
2022-12-08T02:26:45.567Z,99307.66
2022-12-08T02:29:44.211Z,99304.00
2022-12-08T02:32:35.636Z,99301.00
2022-12-08T02:35:17.919Z,99293.75
2022-12-08T02:37:55.185Z,99290.75
2022-12-08T02:40:29.120Z,99292.63
2022-12-08T02:43:18.111Z,99283.88
2022-12-08T02:45:51.767Z,99287.25
2022-12-08T02:48:18.355Z,99287.31
2022-12-08T02:50:44.983Z,99289.28
2022-12-08T02:55:43.212Z,99283.03
2022-12-08T02:58:28.349Z,99270.88
2022-12-08T03:01:13.032Z,99274.03
2022-12-08T03:03:45.781Z,99267.19
2022-12-08T03:06:35.097Z,99268.06
2022-12-08T03:09:18.828Z,99257.69
2022-12-08T03:11:56.081Z,99255.56
2022-12-08T03:14:22.926Z,99248.91
2022-12-08T03:16:55.183Z,99242.06
2022-12-08T03:19:26.432Z,99239.38
2022-12-08T03:22:02.717Z,99240.38
2022-12-08T03:24:36.358Z,99243.13
2022-12-08T03:27:13.703Z,99228.31
2022-12-08T03:29:41.025Z,99224.06
2022-12-08T03:32:35.550Z,99227.41
2022-12-08T03:35:06.680Z,99229.47
2022-12-08T03:37:36.039Z,99232.53
2022-12-08T03:40:04.964Z,99226.19
2022-12-08T03:42:31.773Z,99222.06
2022-12-08T03:44:58.292Z,99222.78
2022-12-08T03:47:24.865Z,99217.91
2022-12-08T03:49:51.452Z,99228.09
2022-12-08T03:52:17.963Z,99221.59
2022-12-08T03:54:44.530Z,99224.84
2022-12-08T03:57:11.186Z,99218.00
2022-12-08T03:59:37.726Z,99215.38
2022-12-08T04:02:04.357Z,99215.06
2022-12-08T04:04:31.304Z,99214.69
2022-12-08T04:06:57.945Z,99213.69
2022-12-08T04:09:24.639Z,99209.38
2022-12-08T04:11:51.242Z,99210.44
2022-12-08T04:14:17.732Z,99200.59
2022-12-08T04:16:44.284Z,99209.38
2022-12-08T04:19:10.881Z,99204.03
2022-12-08T04:21:37.387Z,99213.53
2022-12-08T04:24:04.048Z,99212.88
2022-12-08T04:26:30.735Z,99209.06
2022-12-08T04:28:57.228Z,99210.16
2022-12-08T04:31:23.941Z,99209.31
2022-12-08T04:33:50.648Z,99210.47
2022-12-08T04:36:17.177Z,99216.91
2022-12-08T04:38:43.748Z,99210.47
2022-12-08T04:41:10.522Z,99213.31
2022-12-08T04:43:37.244Z,99207.56
2022-12-08T04:46:07.397Z,99205.69
2022-12-08T04:48:35.104Z,99209.47
2022-12-08T04:51:01.628Z,99202.19
2022-12-08T04:53:28.189Z,99195.31
2022-12-08T04:55:55.012Z,99202.75
2022-12-08T04:58:21.875Z,99200.75
2022-12-08T05:00:48.937Z,99197.91
2022-12-08T05:03:16.137Z,99201.91
2022-12-08T05:05:43.061Z,99195.59
2022-12-08T05:08:10.488Z,99203.91
2022-12-08T05:10:37.350Z,99194.75
2022-12-08T05:13:03.877Z,99195.84
2022-12-08T05:15:30.517Z,99187.97
2022-12-08T05:17:57.117Z,99192.63
2022-12-08T05:20:23.779Z,99183.16
2022-12-08T05:22:50.538Z,99183.34
2022-12-08T05:25:17.355Z,99187.47
2022-12-08T05:27:43.978Z,99178.50
2022-12-08T05:30:10.717Z,99183.66
2022-12-08T05:32:37.407Z,99166.88
2022-12-08T05:35:04.041Z,99172.59
2022-12-08T05:37:30.587Z,99169.53
2022-12-08T05:39:57.184Z,99174.06
2022-12-08T05:42:25.075Z,99176.38
2022-12-08T05:44:52.311Z,99173.53
2022-12-08T05:47:19.036Z,99165.41
2022-12-08T05:49:47.002Z,99158.78
2022-12-08T05:52:13.585Z,99161.06
2022-12-08T05:54:40.255Z,99160.50
2022-12-08T05:57:06.890Z,99166.34
2022-12-08T05:59:33.457Z,99157.59
2022-12-08T06:02:00.219Z,99151.03
2022-12-08T06:04:26.932Z,99161.63
2022-12-08T06:06:53.654Z,99152.84
2022-12-08T06:09:20.212Z,99150.25
2022-12-08T06:11:47.282Z,99148.41
2022-12-08T06:14:14.110Z,99153.81
2022-12-08T06:16:40.806Z,99154.69
2022-12-08T06:19:07.459Z,99156.94
2022-12-08T06:21:34.105Z,99158.84
2022-12-08T06:24:00.915Z,99165.38
2022-12-08T06:26:27.728Z,99157.06
2022-12-08T06:28:54.755Z,99171.31
2022-12-08T06:31:23.824Z,99166.56
2022-12-08T06:33:51.104Z,99162.34
2022-12-08T06:36:19.673Z,99165.44
2022-12-08T06:38:46.633Z,99154.44
2022-12-08T06:41:13.391Z,99156.13
2022-12-08T06:43:41.158Z,99155.72
2022-12-08T06:46:10.571Z,99164.34
2022-12-08T06:48:37.167Z,99166.22
2022-12-08T06:51:17.241Z,99153.38
2022-12-08T06:53:44.571Z,99151.06
2022-12-08T06:56:11.672Z,99146.50
2022-12-08T06:58:38.970Z,99155.91
2022-12-08T07:01:07.693Z,99155.06
2022-12-08T07:03:34.766Z,99160.34
2022-12-08T07:06:04.041Z,99165.59
2022-12-08T07:08:32.063Z,99162.34
2022-12-08T07:10:58.842Z,99145.78
2022-12-08T07:13:25.465Z,99140.69
2022-12-08T07:15:52.212Z,99135.63
2022-12-08T07:18:18.799Z,99141.34
2022-12-08T07:20:45.429Z,99146.50
2022-12-08T07:23:11.963Z,99142.09
2022-12-08T07:25:38.623Z,99135.22
2022-12-08T07:28:11.801Z,99129.72
2022-12-08T07:30:39.249Z,99127.81
2022-12-08T07:33:06.689Z,99122.84
2022-12-08T07:35:35.015Z,99134.16
2022-12-08T07:38:01.940Z,99142.09
2022-12-08T07:40:28.804Z,99140.28
2022-12-08T07:42:57.255Z,99148.63
2022-12-08T07:45:29.862Z,99139.13
2022-12-08T07:47:58.173Z,99141.88
2022-12-08T07:50:24.823Z,99140.31
2022-12-08T07:52:51.318Z,99144.81
2022-12-08T07:55:18.150Z,99141.00
2022-12-08T07:57:44.714Z,99146.84
2022-12-08T08:00:11.780Z,99150.59
2022-12-08T08:02:38.549Z,99156.19
2022-12-08T08:05:06.325Z,99151.69
2022-12-08T08:07:33.051Z,99147.03
2022-12-08T08:09:59.710Z,99151.97
2022-12-08T08:12:33.624Z,99145.44
2022-12-08T08:15:01.528Z,99152.75
2022-12-08T08:17:29.262Z,99152.28
2022-12-08T08:19:56.400Z,99155.34
2022-12-08T08:22:23.076Z,99148.91
2022-12-08T08:24:49.699Z,99149.59
2022-12-08T08:27:16.287Z,99152.53
2022-12-08T08:29:42.851Z,99149.66
2022-12-08T08:32:09.511Z,99150.63
2022-12-08T08:34:36.135Z,99143.66
2022-12-08T08:37:02.787Z,99147.72
2022-12-08T08:39:30.395Z,99150.84
2022-12-08T08:41:56.939Z,99155.06
2022-12-08T08:44:23.681Z,99158.97
2022-12-08T08:46:50.314Z,99154.56
2022-12-08T08:49:17.023Z,99151.69
2022-12-08T08:51:43.924Z,99153.25
2022-12-08T08:54:10.679Z,99151.22
2022-12-08T08:56:37.168Z,99157.91
2022-12-08T08:59:03.901Z,99161.00
2022-12-08T09:01:30.937Z,99156.09
2022-12-08T09:03:58.101Z,99153.88
2022-12-08T09:06:25.288Z,99149.69
2022-12-08T09:08:52.264Z,99147.47
2022-12-08T09:11:18.903Z,99145.16
2022-12-08T09:13:49.473Z,99143.88
2022-12-08T09:16:16.768Z,99131.13
2022-12-08T09:18:43.381Z,99132.69
2022-12-08T09:21:16.590Z,99131.50
2022-12-08T09:23:43.722Z,99124.97
2022-12-08T09:26:10.382Z,99122.13
2022-12-08T09:28:37.089Z,99134.47
2022-12-08T09:31:04.119Z,99131.72
2022-12-08T09:33:30.826Z,99123.22
2022-12-08T09:36:02.242Z,99126.94
2022-12-08T09:38:28.728Z,99130.97
2022-12-08T09:40:55.372Z,99131.31
2022-12-08T09:43:51.764Z,99134.00
2022-12-08T09:46:19.724Z,99126.34
2022-12-08T09:48:56.142Z,99128.25
2022-12-08T09:51:38.998Z,99125.94
2022-12-08T09:54:24.274Z,99124.34
2022-12-08T09:56:55.018Z,99119.63
2022-12-08T09:59:30.660Z,99122.50
2022-12-08T10:01:57.475Z,99116.78
2022-12-08T10:04:28.827Z,99119.09
2022-12-08T10:07:07.565Z,99112.56
2022-12-08T10:09:45.629Z,99111.28
2022-12-08T10:12:20.899Z,99109.06
2022-12-08T10:14:57.187Z,99098.69
2022-12-08T10:17:31.889Z,99095.06
2022-12-08T10:20:04.259Z,99102.00
2022-12-08T10:22:38.678Z,99089.97
2022-12-08T10:25:06.683Z,99088.63
2022-12-08T10:27:36.698Z,99084.78
2022-12-08T10:30:12.092Z,99077.19
2022-12-08T10:32:41.285Z,99065.19
2022-12-08T10:35:12.062Z,99063.88
2022-12-08T10:37:39.160Z,99061.72
2022-12-08T10:40:09.016Z,99055.34
2022-12-08T10:42:39.691Z,99056.00
2022-12-08T10:45:09.140Z,99060.63
2022-12-08T10:47:40.757Z,99052.78
2022-12-08T10:50:19.434Z,99051.81
2022-12-08T10:52:54.261Z,99047.34
2022-12-08T10:55:21.760Z,99035.16
2022-12-08T10:57:51.454Z,99039.91
2022-12-08T11:00:21.964Z,99037.69
2022-12-08T11:03:00.585Z,99035.09
2022-12-08T11:05:35.730Z,99024.88
2022-12-08T11:08:03.995Z,99020.44
2022-12-08T11:10:44.700Z,99021.50
2022-12-08T11:13:26.382Z,99006.28
2022-12-08T11:15:57.018Z,99012.97
2022-12-08T11:18:29.873Z,98999.94
2022-12-08T11:21:07.637Z,99005.78
2022-12-08T11:23:36.616Z,99007.06
2022-12-08T11:26:11.858Z,99006.63
2022-12-08T11:28:39.278Z,99011.19
2022-12-08T11:31:25.480Z,99004.09
2022-12-08T11:33:52.951Z,98994.22
2022-12-08T11:36:23.063Z,98986.34
2022-12-08T11:38:55.256Z,98985.59
2022-12-08T11:41:27.166Z,98985.63
2022-12-08T11:44:22.243Z,98983.41
2022-12-08T11:47:20.503Z,98962.72
2022-12-08T11:49:49.063Z,98959.75
2022-12-08T11:52:27.862Z,98969.78
2022-12-08T11:55:13.976Z,98959.59
2022-12-08T11:57:40.675Z,98952.97
2022-12-08T12:00:13.406Z,98956.81
2022-12-08T12:02:44.963Z,98955.41
2022-12-08T12:05:39.923Z,98957.91
2022-12-08T12:08:50.368Z,98943.72
2022-12-08T12:12:00.383Z,98944.19
2022-12-08T12:14:32.708Z,98921.31
2022-12-08T12:17:05.425Z,98921.13
2022-12-08T12:19:39.625Z,98908.94
2022-12-08T12:22:17.804Z,98912.22
2022-12-08T12:24:47.547Z,98888.84
2022-12-08T12:27:14.109Z,98887.06
2022-12-08T12:30:00.722Z,98882.28
2022-12-08T12:32:41.411Z,98878.28
2022-12-08T12:35:29.294Z,98872.09
2022-12-08T12:38:00.083Z,98867.34
2022-12-08T12:40:29.123Z,98860.00
2022-12-08T12:42:55.725Z,98853.91
2022-12-08T12:45:22.203Z,98848.56
2022-12-08T12:48:00.503Z,98838.97
2022-12-08T12:50:39.029Z,98848.16
2022-12-08T12:53:20.798Z,98849.59
2022-12-08T12:56:03.990Z,98835.00
2022-12-08T12:58:30.615Z,98837.50
2022-12-08T13:01:17.001Z,98839.75
2022-12-08T13:03:47.558Z,98829.50
2022-12-08T13:06:21.569Z,98828.97
2022-12-08T13:08:53.559Z,98828.28
2022-12-08T13:11:21.539Z,98826.78
2022-12-08T13:14:06.477Z,98829.31
2022-12-08T13:16:39.462Z,98834.69
2022-12-08T13:19:14.968Z,98827.53
2022-12-08T13:21:42.052Z,98823.69
2022-12-08T13:24:17.187Z,98817.09
2022-12-08T13:26:45.787Z,98811.56
2022-12-08T13:29:22.051Z,98813.03
2022-12-08T13:31:55.617Z,98812.28
2022-12-08T13:34:42.352Z,98806.16
2022-12-08T13:37:11.687Z,98810.06
2022-12-08T13:39:41.039Z,98807.69
2022-12-08T13:42:19.367Z,98800.53
2022-12-08T13:57:07.128Z,98785.50
2022-12-08T13:59:44.749Z,98778.56
2022-12-08T14:02:18.059Z,98782.22
2022-12-08T14:05:16.994Z,98765.63
2022-12-08T14:07:34.356Z,98768.53
2022-12-08T14:10:03.767Z,98769.44
2022-12-08T14:12:31.568Z,98772.56
2022-12-08T14:15:03.734Z,98769.91
2022-12-08T14:17:31.443Z,98760.88
2022-12-08T14:19:59.183Z,98756.44
2022-12-08T14:22:33.995Z,98755.94
2022-12-08T14:25:00.830Z,98754.75
2022-12-08T14:27:36.167Z,98756.41
2022-12-08T14:30:15.565Z,98758.25
2022-12-08T14:32:48.206Z,98753.09
2022-12-08T14:35:29.999Z,98749.28
2022-12-08T14:38:02.661Z,98750.94
2022-12-08T14:40:35.722Z,98754.81
2022-12-08T14:43:12.570Z,98750.75
2022-12-08T14:45:39.126Z,98753.19
2022-12-08T14:48:26.033Z,98754.06
2022-12-08T14:51:20.301Z,98750.03
2022-12-08T14:53:56.398Z,98753.53
2022-12-08T14:56:24.820Z,98745.06
2022-12-08T14:59:14.791Z,98767.88
2022-12-08T15:01:42.358Z,98756.66
2022-12-08T15:04:17.405Z,98748.59
2022-12-08T15:06:56.355Z,98740.16
2022-12-08T15:09:35.157Z,98734.88
2022-12-08T15:12:26.634Z,98739.25
2022-12-08T15:14:55.348Z,98734.50
2022-12-08T15:17:35.936Z,98748.25
2022-12-08T15:20:04.630Z,98743.50
2022-12-08T15:22:31.761Z,98740.56
2022-12-08T15:24:58.583Z,98734.50
2022-12-08T15:27:26.181Z,98730.69
2022-12-08T15:29:53.334Z,98740.41
2022-12-08T15:32:22.397Z,98740.03
2022-12-08T15:34:49.466Z,98724.41
2022-12-08T15:37:22.176Z,98730.09
2022-12-08T15:39:49.449Z,98726.44
2022-12-08T15:42:16.505Z,98727.72
2022-12-08T15:44:43.846Z,98733.78
2022-12-08T15:47:16.324Z,98729.94
2022-12-08T15:49:43.045Z,98722.59
2022-12-08T15:52:38.963Z,98727.91
2022-12-08T15:55:06.045Z,98720.94
2022-12-08T16:09:12.485Z,98711.41
2022-12-08T16:12:08.240Z,98709.19
2022-12-08T16:17:22.740Z,98705.94
2022-12-08T16:19:49.301Z,98704.28
2022-12-08T16:25:23.354Z,98720.22
2022-12-08T16:28:36.925Z,98722.44
2022-12-08T16:30:40.242Z,98715.84
2022-12-08T16:33:07.117Z,98714.38
2022-12-08T16:35:33.672Z,98722.44
2022-12-08T16:38:00.478Z,98723.34
2022-12-08T16:40:26.991Z,98721.84
2022-12-08T16:42:53.570Z,98704.09
2022-12-08T16:45:29.155Z,98706.66
2022-12-08T16:47:58.293Z,98710.34
2022-12-08T16:50:30.547Z,98709.75
2022-12-08T16:52:59.189Z,98705.72
2022-12-08T16:55:25.947Z,98694.72
2022-12-08T16:57:53.211Z,98691.09
2022-12-08T17:00:24.831Z,98694.94
2022-12-08T17:02:52.208Z,98697.13
2022-12-08T17:05:21.014Z,98689.03
2022-12-08T17:07:50.177Z,98696.00
2022-12-08T17:10:23.282Z,98684.97
2022-12-08T17:12:50.339Z,98672.88
2022-12-08T17:15:19.635Z,98673.41
2022-12-08T17:17:47.476Z,98673.97
2022-12-08T17:20:28.214Z,98669.56
2022-12-08T17:22:56.293Z,98651.19
2022-12-08T17:25:22.909Z,98655.59
2022-12-08T17:27:49.475Z,98657.44
2022-12-08T17:30:17.794Z,98656.38
2022-12-08T17:32:44.582Z,98671.44
2022-12-08T17:35:11.406Z,98659.66
2022-12-08T17:37:38.238Z,98654.91
2022-12-08T17:40:08.163Z,98654.00
2022-12-08T17:42:34.957Z,98657.16
2022-12-08T17:45:01.717Z,98654.63
2022-12-08T17:47:28.244Z,98655.50
2022-12-08T17:49:56.114Z,98653.88
2022-12-08T17:52:22.942Z,98648.16
2022-12-08T17:54:49.463Z,98639.88
2022-12-08T17:57:15.962Z,98642.28
2022-12-08T17:59:42.719Z,98649.44
2022-12-08T18:02:10.878Z,98649.81
2022-12-08T18:04:37.718Z,98655.31
2022-12-08T18:07:04.447Z,98647.63
2022-12-08T18:09:31.491Z,98646.34
2022-12-08T18:11:58.180Z,98651.09
2022-12-08T18:14:25.188Z,98649.09
2022-12-08T18:16:53.366Z,98638.47
2022-12-08T18:19:19.931Z,98637.38
2022-12-08T18:21:46.547Z,98630.03
2022-12-08T18:24:20.933Z,98629.69
2022-12-08T18:26:48.078Z,98630.03
2022-12-08T18:29:14.739Z,98621.59
2022-12-08T18:31:41.239Z,98625.09
2022-12-08T18:34:08.111Z,98617.19
2022-12-08T18:36:34.831Z,98617.75
2022-12-08T18:39:04.585Z,98612.44
2022-12-08T18:41:35.557Z,98611.91
2022-12-08T18:44:02.056Z,98614.25
2022-12-08T18:46:28.693Z,98624.38
2022-12-08T18:48:55.613Z,98618.31
2022-12-08T18:51:23.708Z,98629.69
2022-12-08T18:53:51.297Z,98626.91
2022-12-08T18:56:22.328Z,98617.22
2022-12-08T18:58:48.880Z,98624.16
2022-12-08T19:01:15.653Z,98623.97
2022-12-08T19:03:48.928Z,98616.44
2022-12-08T19:06:30.047Z,98618.28
2022-12-08T19:08:56.939Z,98614.63
2022-12-08T19:11:26.137Z,98612.59
2022-12-08T19:13:53.974Z,98620.06
2022-12-08T19:16:21.524Z,98608.34
2022-12-08T19:18:48.078Z,98595.56
2022-12-08T19:21:14.688Z,98608.88
2022-12-08T19:23:42.176Z,98592.44
2022-12-08T19:26:08.898Z,98594.09
2022-12-08T19:28:35.540Z,98596.31
2022-12-08T19:31:10.130Z,98583.84
2022-12-08T19:33:37.742Z,98582.72
2022-12-08T19:36:10.670Z,98582.75
2022-12-08T19:38:55.862Z,98587.53
2022-12-08T19:41:41.642Z,98574.91
2022-12-08T19:44:42.079Z,98568.47
2022-12-08T19:47:09.317Z,98561.88
2022-12-08T19:49:36.039Z,98568.47
2022-12-08T19:52:02.680Z,98559.47
2022-12-08T19:54:29.510Z,98555.28
2022-12-08T19:56:56.305Z,98564.03
2022-12-08T19:59:26.400Z,98558.94
2022-12-08T20:01:55.973Z,98554.75
2022-12-08T20:04:24.146Z,98553.81
2022-12-08T20:06:52.604Z,98559.13
2022-12-08T20:09:20.361Z,98552.88
2022-12-08T20:11:46.963Z,98551.59
2022-12-08T20:14:13.643Z,98567.34
2022-12-08T20:16:41.917Z,98561.50
2022-12-08T20:19:09.451Z,98558.91
2022-12-08T20:21:36.045Z,98555.09
2022-12-08T20:24:02.713Z,98559.50
2022-12-08T20:26:29.276Z,98556.75
2022-12-08T20:28:55.935Z,98556.00
2022-12-08T20:31:28.350Z,98549.78
2022-12-08T20:33:55.511Z,98552.31
2022-12-08T20:36:22.485Z,98562.75
2022-12-08T20:38:51.016Z,98559.66
2022-12-08T20:41:18.552Z,98560.03
2022-12-08T20:43:46.458Z,98558.00
2022-12-08T20:46:15.517Z,98547.75
2022-12-08T20:48:42.944Z,98549.06
2022-12-08T20:51:13.103Z,98541.00
2022-12-08T20:53:39.759Z,98537.31
2022-12-08T20:56:06.724Z,98541.00
2022-12-08T20:58:33.294Z,98541.69
2022-12-08T21:00:59.934Z,98539.88
2022-12-08T21:03:26.860Z,98534.97
2022-12-08T21:05:53.865Z,98528.53
2022-12-08T21:08:20.886Z,98531.63
2022-12-08T21:10:53.871Z,98530.72
2022-12-08T21:13:21.233Z,98533.66
2022-12-08T21:15:48.092Z,98536.94
2022-12-08T21:18:16.338Z,98531.25
2022-12-08T21:20:44.071Z,98535.44
2022-12-08T21:23:11.426Z,98531.97
2022-12-08T21:25:42.690Z,98531.97
2022-12-08T21:28:09.940Z,98531.97
2022-12-08T21:30:38.851Z,98527.78
2022-12-08T21:33:05.781Z,98535.84
2022-12-08T21:35:32.460Z,98537.69
2022-12-08T21:37:59.576Z,98526.69
2022-12-08T21:40:26.126Z,98535.31
2022-12-08T21:42:53.107Z,98536.94
2022-12-08T21:45:20.877Z,98531.06
2022-12-08T21:47:48.865Z,98531.06
2022-12-08T21:50:16.541Z,98530.16
2022-12-08T21:52:45.843Z,98532.53
2022-12-08T21:55:14.352Z,98522.28
2022-12-08T21:57:41.488Z,98527.25
2022-12-08T22:00:10.953Z,98519.91
2022-12-08T22:02:38.003Z,98518.44
2022-12-08T22:05:05.345Z,98509.47
2022-12-08T22:07:32.013Z,98510.75
2022-12-08T22:09:58.782Z,98512.41
2022-12-08T22:12:25.460Z,98512.78
2022-12-08T22:14:52.406Z,98517.50
2022-12-08T22:17:19.741Z,98513.31
2022-12-08T22:19:46.527Z,98508.78
2022-12-08T22:22:13.259Z,98505.81
2022-12-08T22:24:39.889Z,98507.63
2022-12-08T22:27:06.720Z,98510.59
2022-12-08T22:29:33.515Z,98499.78
2022-12-08T22:32:00.224Z,98499.97
2022-12-08T22:34:27.314Z,98505.81
2022-12-08T22:36:54.293Z,98493.72
2022-12-08T22:39:21.111Z,98496.84
2022-12-08T22:41:47.972Z,98494.63
2022-12-08T22:44:15.843Z,98504.50
2022-12-08T22:46:42.787Z,98497.41
2022-12-08T22:49:09.562Z,98487.84
2022-12-08T22:51:37.369Z,98490.63
2022-12-08T22:54:04.449Z,98485.66
2022-12-08T22:56:31.129Z,98482.94
2022-12-08T22:58:58.513Z,98484.75
2022-12-08T23:01:29.566Z,98480.91
2022-12-08T23:03:57.521Z,98476.88
2022-12-08T23:06:25.790Z,98479.44
2022-12-08T23:08:53.217Z,98471.75
2022-12-08T23:11:20.699Z,98474.69
2022-12-08T23:13:47.617Z,98465.53
2022-12-08T23:16:14.552Z,98460.56
2022-12-08T23:18:43.231Z,98472.50
2022-12-08T23:21:17.190Z,98453.44
2022-12-08T23:23:44.208Z,98453.44
2022-12-08T23:26:27.339Z,98450.31
2022-12-08T23:28:54.518Z,98459.88
2022-12-08T23:31:21.494Z,98455.28
2022-12-08T23:33:48.657Z,98454.16
2022-12-08T23:36:16.687Z,98442.69
2022-12-08T23:38:43.756Z,98431.69
2022-12-08T23:41:13.063Z,98431.09
2022-12-08T23:43:47.295Z,98426.53
2022-12-08T23:46:16.013Z,98424.50
2022-12-08T23:48:42.878Z,98414.97
2022-12-08T23:51:09.740Z,98405.31
2022-12-08T23:53:36.427Z,98399.97
2022-12-08T23:56:06.200Z,98393.22
2022-12-08T23:58:33.946Z,98388.25
